Woodhaven, New York
Current Conditions -  °F | °C
As of 11:33 AM on Wednesday 26 Nov 2014 (Local Time) from KJFK Reporting Station
Ice Pellets Ice Pellets  
Wind Chill: -3°   Ceiling: 800
Heat Index:   Visibility: 5mi
Dew Point:   Wind: 15mph
Humidity: 93%   Direction: 10°N
Pressure: 30.03"   Gusts: NA
Location:  40.69°N, 73.86°W
Report Text: KJFK 261633Z 01013KT 5SM -PLRA BR BKN008 BKN042 OVC070 02/01 A3003 RMK AO2 SNE13PLB33 P0005 $
Loading
Personal Weather Stations






























Interactive Weather Map New forecast layout! Learn more

10-Day Weather Forecast

Advertisements
Track Severe Weather on mobile